sensor_id;sensor_type;location;lat;lon;timestamp;temperature;humidity
1468;DHT22;727;48.892;9.544;2023-06-24T00:02:15;15.10;99.90
1468;DHT22;727;48.892;9.544;2023-06-24T00:04:43;15.10;99.90
1468;DHT22;727;48.892;9.544;2023-06-24T00:07:10;15.00;99.90
1468;DHT22;727;48.892;9.544;2023-06-24T00:09:36;15.00;99.90
1468;DHT22;727;48.892;9.544;2023-06-24T00:12:04;14.90;99.90
1468;DHT22;727;48.892;9.544;2023-06-24T00:14:31;14.90;99.90
1468;DHT22;727;48.892;9.544;2023-06-24T00:16:58;14.90;99.90
1468;DHT22;727;48.892;9.544;2023-06-24T00:19:25;14.90;99.90
1468;DHT22;727;48.892;9.544;2023-06-24T00:21:54;14.90;99.90
1468;DHT22;727;48.892;9.544;2023-06-24T00:24:22;14.90;99.90
1468;DHT22;727;48.892;9.544;2023-06-24T00:26:51;14.80;99.90
1468;DHT22;727;48.892;9.544;2023-06-24T00:29:18;14.80;99.90
1468;DHT22;727;48.892;9.544;2023-06-24T00:31:45;14.70;99.90
1468;DHT22;727;48.892;9.544;2023-06-24T00:34:11;14.70;99.90
1468;DHT22;727;48.892;9.544;2023-06-24T00:36:38;14.60;99.90
1468;DHT22;727;48.892;9.544;2023-06-24T00:39:07;14.60;99.90
1468;DHT22;727;48.892;9.544;2023-06-24T00:41:35;14.70;99.90
1468;DHT22;727;48.892;9.544;2023-06-24T00:44:02;14.70;99.90
1468;DHT22;727;48.892;9.544;2023-06-24T00:46:29;14.70;99.90
1468;DHT22;727;48.892;9.544;2023-06-24T00:48:58;14.70;99.90
1468;DHT22;727;48.892;9.544;2023-06-24T00:51:26;14.60;99.90
1468;DHT22;727;48.892;9.544;2023-06-24T00:53:56;14.60;99.90
1468;DHT22;727;48.892;9.544;2023-06-24T00:56:27;14.60;99.90
1468;DHT22;727;48.892;9.544;2023-06-24T00:58:54;14.60;99.90
1468;DHT22;727;48.892;9.544;2023-06-24T01:01:21;14.60;99.90
1468;DHT22;727;48.892;9.544;2023-06-24T01:03:49;14.50;99.90
1468;DHT22;727;48.892;9.544;2023-06-24T01:06:16;14.50;99.90
1468;DHT22;727;48.892;9.544;2023-06-24T01:08:44;14.50;99.90
1468;DHT22;727;48.892;9.544;2023-06-24T01:11:16;14.40;99.90
1468;DHT22;727;48.892;9.544;2023-06-24T01:13:44;14.40;99.90
1468;DHT22;727;48.892;9.544;2023-06-24T01:16:16;14.30;99.90
1468;DHT22;727;48.892;9.544;2023-06-24T01:18:49;14.30;99.90
1468;DHT22;727;48.892;9.544;2023-06-24T01:21:30;14.30;99.90
1468;DHT22;727;48.892;9.544;2023-06-24T01:24:19;14.20;99.90
1468;DHT22;727;48.892;9.544;2023-06-24T01:27:06;14.20;99.90
1468;DHT22;727;48.892;9.544;2023-06-24T01:29:52;14.20;99.90
1468;DHT22;727;48.892;9.544;2023-06-24T01:32:29;14.20;99.90
1468;DHT22;727;48.892;9.544;2023-06-24T01:35:00;14.10;99.90
1468;DHT22;727;48.892;9.544;2023-06-24T01:37:32;14.00;99.90
1468;DHT22;727;48.892;9.544;2023-06-24T01:40:05;14.00;99.90
1468;DHT22;727;48.892;9.544;2023-06-24T01:42:38;14.00;99.90
1468;DHT22;727;48.892;9.544;2023-06-24T01:45:06;14.00;99.90
1468;DHT22;727;48.892;9.544;2023-06-24T01:47:38;14.00;99.90
1468;DHT22;727;48.892;9.544;2023-06-24T01:50:06;14.00;99.90
1468;DHT22;727;48.892;9.544;2023-06-24T01:52:35;14.00;99.90
1468;DHT22;727;48.892;9.544;2023-06-24T01:55:04;14.00;99.90
1468;DHT22;727;48.892;9.544;2023-06-24T01:57:33;13.90;99.90
1468;DHT22;727;48.892;9.544;2023-06-24T02:00:02;13.90;99.90
1468;DHT22;727;48.892;9.544;2023-06-24T02:02:32;13.90;99.90
1468;DHT22;727;48.892;9.544;2023-06-24T02:05:02;13.90;99.90
1468;DHT22;727;48.892;9.544;2023-06-24T02:07:31;13.90;99.90
1468;DHT22;727;48.892;9.544;2023-06-24T02:09:59;13.90;99.90
1468;DHT22;727;48.892;9.544;2023-06-24T02:12:26;13.90;99.90
1468;DHT22;727;48.892;9.544;2023-06-24T02:14:55;13.90;99.90
1468;DHT22;727;48.892;9.544;2023-06-24T02:17:24;13.90;99.90
1468;DHT22;727;48.892;9.544;2023-06-24T02:19:52;13.80;99.90
1468;DHT22;727;48.892;9.544;2023-06-24T02:22:22;13.80;99.90
1468;DHT22;727;48.892;9.544;2023-06-24T02:24:49;13.70;99.90
1468;DHT22;727;48.892;9.544;2023-06-24T02:27:16;13.70;99.90
1468;DHT22;727;48.892;9.544;2023-06-24T02:29:43;13.60;99.90
1468;DHT22;727;48.892;9.544;2023-06-24T02:32:11;13.50;99.90
1468;DHT22;727;48.892;9.544;2023-06-24T02:34:38;13.50;99.90
1468;DHT22;727;48.892;9.544;2023-06-24T02:37:05;13.50;99.90
1468;DHT22;727;48.892;9.544;2023-06-24T02:39:34;13.50;99.90
1468;DHT22;727;48.892;9.544;2023-06-24T02:42:00;13.50;99.90
1468;DHT22;727;48.892;9.544;2023-06-24T02:44:27;13.40;99.90
1468;DHT22;727;48.892;9.544;2023-06-24T02:46:54;13.40;99.90
1468;DHT22;727;48.892;9.544;2023-06-24T02:49:21;13.30;99.90
1468;DHT22;727;48.892;9.544;2023-06-24T02:51:49;13.30;99.90
1468;DHT22;727;48.892;9.544;2023-06-24T02:54:15;13.30;99.90
1468;DHT22;727;48.892;9.544;2023-06-24T02:56:44;13.30;99.90
1468;DHT22;727;48.892;9.544;2023-06-24T02:59:11;13.30;99.90
1468;DHT22;727;48.892;9.544;2023-06-24T03:01:38;13.30;99.90
1468;DHT22;727;48.892;9.544;2023-06-24T03:04:10;13.30;99.90
1468;DHT22;727;48.892;9.544;2023-06-24T03:06:37;13.30;99.90
1468;DHT22;727;48.892;9.544;2023-06-24T03:09:05;13.30;99.90
1468;DHT22;727;48.892;9.544;2023-06-24T03:11:40;13.20;99.90
1468;DHT22;727;48.892;9.544;2023-06-24T03:14:08;13.20;99.90
1468;DHT22;727;48.892;9.544;2023-06-24T03:16:35;13.20;99.90
1468;DHT22;727;48.892;9.544;2023-06-24T03:19:02;13.20;99.90
1468;DHT22;727;48.892;9.544;2023-06-24T03:21:28;13.20;99.90
1468;DHT22;727;48.892;9.544;2023-06-24T03:23:55;13.10;99.90
1468;DHT22;727;48.892;9.544;2023-06-24T03:26:24;13.10;99.90
1468;DHT22;727;48.892;9.544;2023-06-24T03:28:51;13.10;99.90
1468;DHT22;727;48.892;9.544;2023-06-24T03:31:19;13.10;99.90
1468;DHT22;727;48.892;9.544;2023-06-24T03:33:48;13.10;99.90
1468;DHT22;727;48.892;9.544;2023-06-24T03:36:15;13.10;99.90
1468;DHT22;727;48.892;9.544;2023-06-24T03:38:41;13.10;99.90
1468;DHT22;727;48.892;9.544;2023-06-24T03:41:08;13.20;99.90
1468;DHT22;727;48.892;9.544;2023-06-24T03:43:35;13.30;99.90
1468;DHT22;727;48.892;9.544;2023-06-24T03:46:01;13.30;99.90
1468;DHT22;727;48.892;9.544;2023-06-24T03:48:30;13.40;99.90
1468;DHT22;727;48.892;9.544;2023-06-24T03:50:56;13.40;99.90
1468;DHT22;727;48.892;9.544;2023-06-24T03:53:23;13.50;99.90
1468;DHT22;727;48.892;9.544;2023-06-24T03:55:50;13.50;99.90
1468;DHT22;727;48.892;9.544;2023-06-24T03:58:16;13.50;99.90
1468;DHT22;727;48.892;9.544;2023-06-24T04:00:46;13.60;99.90
1468;DHT22;727;48.892;9.544;2023-06-24T04:03:14;13.60;99.90
1468;DHT22;727;48.892;9.544;2023-06-24T04:05:43;13.60;99.90
1468;DHT22;727;48.892;9.544;2023-06-24T04:08:09;13.60;99.90
1468;DHT22;727;48.892;9.544;2023-06-24T04:10:36;13.70;99.90
1468;DHT22;727;48.892;9.544;2023-06-24T04:13:03;13.70;99.90
1468;DHT22;727;48.892;9.544;2023-06-24T04:15:29;13.70;99.90
1468;DHT22;727;48.892;9.544;2023-06-24T04:17:56;13.80;99.90
1468;DHT22;727;48.892;9.544;2023-06-24T04:20:23;13.90;99.90
1468;DHT22;727;48.892;9.544;2023-06-24T04:22:51;14.10;99.90
1468;DHT22;727;48.892;9.544;2023-06-24T04:25:18;14.30;99.90
1468;DHT22;727;48.892;9.544;2023-06-24T04:27:44;14.50;99.90
1468;DHT22;727;48.892;9.544;2023-06-24T04:30:11;14.60;99.90
1468;DHT22;727;48.892;9.544;2023-06-24T04:32:38;14.80;99.90
1468;DHT22;727;48.892;9.544;2023-06-24T04:35:05;15.10;99.90
1468;DHT22;727;48.892;9.544;2023-06-24T04:37:32;15.20;99.90
1468;DHT22;727;48.892;9.544;2023-06-24T04:40:00;15.40;99.90
1468;DHT22;727;48.892;9.544;2023-06-24T04:42:26;15.60;99.90
1468;DHT22;727;48.892;9.544;2023-06-24T04:44:53;15.90;99.90
1468;DHT22;727;48.892;9.544;2023-06-24T04:47:20;16.70;99.90
1468;DHT22;727;48.892;9.544;2023-06-24T04:49:47;17.70;99.90
1468;DHT22;727;48.892;9.544;2023-06-24T04:52:14;18.50;99.90
1468;DHT22;727;48.892;9.544;2023-06-24T04:54:41;19.00;99.10
1468;DHT22;727;48.892;9.544;2023-06-24T04:57:23;19.20;97.70
1468;DHT22;727;48.892;9.544;2023-06-24T04:59:50;19.20;97.00
1468;DHT22;727;48.892;9.544;2023-06-24T05:02:17;19.00;96.80
1468;DHT22;727;48.892;9.544;2023-06-24T05:04:43;19.20;96.70
1468;DHT22;727;48.892;9.544;2023-06-24T05:07:10;19.70;96.10
1468;DHT22;727;48.892;9.544;2023-06-24T05:09:37;20.40;95.40
1468;DHT22;727;48.892;9.544;2023-06-24T05:12:05;21.30;93.60
1468;DHT22;727;48.892;9.544;2023-06-24T05:14:34;21.90;92.00
1468;DHT22;727;48.892;9.544;2023-06-24T05:17:01;22.30;90.50
1468;DHT22;727;48.892;9.544;2023-06-24T05:19:28;22.60;90.00
1468;DHT22;727;48.892;9.544;2023-06-24T05:21:55;22.90;87.80
1468;DHT22;727;48.892;9.544;2023-06-24T05:24:21;23.10;86.10
1468;DHT22;727;48.892;9.544;2023-06-24T05:26:49;23.60;84.60
1468;DHT22;727;48.892;9.544;2023-06-24T05:29:16;24.20;81.80
1468;DHT22;727;48.892;9.544;2023-06-24T05:31:45;24.80;79.20
1468;DHT22;727;48.892;9.544;2023-06-24T05:34:12;25.30;77.30
1468;DHT22;727;48.892;9.544;2023-06-24T05:36:39;25.60;75.20
1468;DHT22;727;48.892;9.544;2023-06-24T05:39:05;25.90;74.00
1468;DHT22;727;48.892;9.544;2023-06-24T05:41:33;25.80;73.20
1468;DHT22;727;48.892;9.544;2023-06-24T05:44:04;26.30;72.60
1468;DHT22;727;48.892;9.544;2023-06-24T05:46:31;27.10;69.30
1468;DHT22;727;48.892;9.544;2023-06-24T05:48:59;27.30;68.00
1468;DHT22;727;48.892;9.544;2023-06-24T05:51:26;27.10;68.10
1468;DHT22;727;48.892;9.544;2023-06-24T05:53:53;27.50;67.30
1468;DHT22;727;48.892;9.544;2023-06-24T05:56:20;27.90;66.60
1468;DHT22;727;48.892;9.544;2023-06-24T05:58:47;27.80;66.00
1468;DHT22;727;48.892;9.544;2023-06-24T06:01:13;27.40;67.60
1468;DHT22;727;48.892;9.544;2023-06-24T06:03:40;27.10;68.20
1468;DHT22;727;48.892;9.544;2023-06-24T06:06:08;26.30;70.20
1468;DHT22;727;48.892;9.544;2023-06-24T06:08:35;26.10;71.10
1468;DHT22;727;48.892;9.544;2023-06-24T06:11:02;25.40;72.70
1468;DHT22;727;48.892;9.544;2023-06-24T06:13:29;25.00;72.80
1468;DHT22;727;48.892;9.544;2023-06-24T06:15:55;24.80;73.50
1468;DHT22;727;48.892;9.544;2023-06-24T06:18:22;24.30;75.10
1468;DHT22;727;48.892;9.544;2023-06-24T06:20:49;23.90;76.20
1468;DHT22;727;48.892;9.544;2023-06-24T06:23:18;23.80;77.10
1468;DHT22;727;48.892;9.544;2023-06-24T06:25:44;23.70;77.60
1468;DHT22;727;48.892;9.544;2023-06-24T06:28:11;23.20;78.40
1468;DHT22;727;48.892;9.544;2023-06-24T06:30:39;23.00;78.50
1468;DHT22;727;48.892;9.544;2023-06-24T06:33:06;23.20;78.40
1468;DHT22;727;48.892;9.544;2023-06-24T06:35:33;23.30;78.60
1468;DHT22;727;48.892;9.544;2023-06-24T06:37:59;23.40;77.90
1468;DHT22;727;48.892;9.544;2023-06-24T06:40:27;23.50;76.20
1468;DHT22;727;48.892;9.544;2023-06-24T06:42:54;23.70;76.30
1468;DHT22;727;48.892;9.544;2023-06-24T06:45:21;23.60;75.70
1468;DHT22;727;48.892;9.544;2023-06-24T06:47:49;23.70;75.50
1468;DHT22;727;48.892;9.544;2023-06-24T06:50:15;23.50;75.20
1468;DHT22;727;48.892;9.544;2023-06-24T06:52:42;23.70;75.70
1468;DHT22;727;48.892;9.544;2023-06-24T06:55:09;24.00;75.10
1468;DHT22;727;48.892;9.544;2023-06-24T06:57:37;24.40;74.30
1468;DHT22;727;48.892;9.544;2023-06-24T07:00:05;24.70;72.50
1468;DHT22;727;48.892;9.544;2023-06-24T07:02:32;24.70;71.70
1468;DHT22;727;48.892;9.544;2023-06-24T07:04:59;24.90;71.00
1468;DHT22;727;48.892;9.544;2023-06-24T07:07:26;24.70;71.50
1468;DHT22;727;48.892;9.544;2023-06-24T07:09:53;24.90;71.70
1468;DHT22;727;48.892;9.544;2023-06-24T07:12:20;25.00;71.10
1468;DHT22;727;48.892;9.544;2023-06-24T07:14:50;25.10;71.30
1468;DHT22;727;48.892;9.544;2023-06-24T07:17:17;25.20;70.30
1468;DHT22;727;48.892;9.544;2023-06-24T07:19:44;25.40;70.10
1468;DHT22;727;48.892;9.544;2023-06-24T07:22:11;25.50;69.60
1468;DHT22;727;48.892;9.544;2023-06-24T07:24:38;25.80;69.40
1468;DHT22;727;48.892;9.544;2023-06-24T07:27:05;25.80;69.50
1468;DHT22;727;48.892;9.544;2023-06-24T07:29:34;26.00;68.00
1468;DHT22;727;48.892;9.544;2023-06-24T07:32:05;26.10;67.60
1468;DHT22;727;48.892;9.544;2023-06-24T07:34:33;26.10;67.90
1468;DHT22;727;48.892;9.544;2023-06-24T07:37:00;26.00;67.90
1468;DHT22;727;48.892;9.544;2023-06-24T07:39:27;26.10;67.50
1468;DHT22;727;48.892;9.544;2023-06-24T07:41:55;26.20;67.40
1468;DHT22;727;48.892;9.544;2023-06-24T07:44:27;26.20;67.20
1468;DHT22;727;48.892;9.544;2023-06-24T07:46:54;26.40;67.10
1468;DHT22;727;48.892;9.544;2023-06-24T07:49:23;26.40;66.80
1468;DHT22;727;48.892;9.544;2023-06-24T07:51:50;26.40;66.30
1468;DHT22;727;48.892;9.544;2023-06-24T07:54:16;26.40;65.70
1468;DHT22;727;48.892;9.544;2023-06-24T07:56:51;26.30;66.00
1468;DHT22;727;48.892;9.544;2023-06-24T07:59:18;26.50;65.40
1468;DHT22;727;48.892;9.544;2023-06-24T08:01:45;26.70;64.50
1468;DHT22;727;48.892;9.544;2023-06-24T08:04:18;26.90;65.30
1468;DHT22;727;48.892;9.544;2023-06-24T08:06:48;27.10;63.10
1468;DHT22;727;48.892;9.544;2023-06-24T08:09:15;27.00;63.10
1468;DHT22;727;48.892;9.544;2023-06-24T08:11:45;27.20;61.60
1468;DHT22;727;48.892;9.544;2023-06-24T08:14:19;27.50;60.60
1468;DHT22;727;48.892;9.544;2023-06-24T08:16:46;27.80;59.40
1468;DHT22;727;48.892;9.544;2023-06-24T08:19:13;27.80;58.00
1468;DHT22;727;48.892;9.544;2023-06-24T08:21:40;27.90;57.90
1468;DHT22;727;48.892;9.544;2023-06-24T08:24:08;27.80;59.60
1468;DHT22;727;48.892;9.544;2023-06-24T08:26:36;27.90;57.70
1468;DHT22;727;48.892;9.544;2023-06-24T08:29:03;27.70;59.20
1468;DHT22;727;48.892;9.544;2023-06-24T08:31:30;27.90;59.60
1468;DHT22;727;48.892;9.544;2023-06-24T08:33:59;27.90;58.50
1468;DHT22;727;48.892;9.544;2023-06-24T08:36:28;28.10;57.80
1468;DHT22;727;48.892;9.544;2023-06-24T08:38:55;27.90;57.90
1468;DHT22;727;48.892;9.544;2023-06-24T08:41:24;28.20;57.60
1468;DHT22;727;48.892;9.544;2023-06-24T08:51:50;28.50;57.50
1468;DHT22;727;48.892;9.544;2023-06-24T08:54:25;28.90;55.80
1468;DHT22;727;48.892;9.544;2023-06-24T08:56:57;29.00;54.60
1468;DHT22;727;48.892;9.544;2023-06-24T08:59:26;29.10;54.70
1468;DHT22;727;48.892;9.544;2023-06-24T09:01:52;29.30;54.10
1468;DHT22;727;48.892;9.544;2023-06-24T09:04:19;29.20;54.20
1468;DHT22;727;48.892;9.544;2023-06-24T09:06:46;29.40;53.60
1468;DHT22;727;48.892;9.544;2023-06-24T09:09:20;29.20;53.10
1468;DHT22;727;48.892;9.544;2023-06-24T09:11:59;29.30;53.60
1468;DHT22;727;48.892;9.544;2023-06-24T09:14:38;29.40;54.40
1468;DHT22;727;48.892;9.544;2023-06-24T09:17:06;29.80;53.50
1468;DHT22;727;48.892;9.544;2023-06-24T09:19:39;29.90;53.20
1468;DHT22;727;48.892;9.544;2023-06-24T09:22:10;29.90;52.80
1468;DHT22;727;48.892;9.544;2023-06-24T09:24:42;29.90;52.60
1468;DHT22;727;48.892;9.544;2023-06-24T09:27:12;29.70;52.60
1468;DHT22;727;48.892;9.544;2023-06-24T09:29:43;29.60;53.10
1468;DHT22;727;48.892;9.544;2023-06-24T09:32:12;29.70;52.70
1468;DHT22;727;48.892;9.544;2023-06-24T09:34:43;29.60;53.00
1468;DHT22;727;48.892;9.544;2023-06-24T09:37:21;29.80;51.70
1468;DHT22;727;48.892;9.544;2023-06-24T09:42:21;29.70;50.90
1468;DHT22;727;48.892;9.544;2023-06-24T09:44:52;29.80;50.80
1468;DHT22;727;48.892;9.544;2023-06-24T09:47:22;29.90;50.30
1468;DHT22;727;48.892;9.544;2023-06-24T09:49:55;29.80;50.90
1468;DHT22;727;48.892;9.544;2023-06-24T09:52:23;30.20;50.40
1468;DHT22;727;48.892;9.544;2023-06-24T09:54:53;30.30;49.30
1468;DHT22;727;48.892;9.544;2023-06-24T09:57:29;30.50;48.60
1468;DHT22;727;48.892;9.544;2023-06-24T10:03:02;30.80;48.30
1468;DHT22;727;48.892;9.544;2023-06-24T10:05:43;31.00;47.60
1468;DHT22;727;48.892;9.544;2023-06-24T10:08:13;30.70;47.90
1468;DHT22;727;48.892;9.544;2023-06-24T10:10:41;30.90;48.20
1468;DHT22;727;48.892;9.544;2023-06-24T10:13:19;30.60;47.50
1468;DHT22;727;48.892;9.544;2023-06-24T10:15:50;30.20;48.10
1468;DHT22;727;48.892;9.544;2023-06-24T10:18:34;30.20;47.90
1468;DHT22;727;48.892;9.544;2023-06-24T10:21:05;30.50;47.70
1468;DHT22;727;48.892;9.544;2023-06-24T10:23:40;30.30;48.40
1468;DHT22;727;48.892;9.544;2023-06-24T10:26:10;30.10;48.40
1468;DHT22;727;48.892;9.544;2023-06-24T10:29:10;30.40;48.90
1468;DHT22;727;48.892;9.544;2023-06-24T10:31:54;30.50;46.10
1468;DHT22;727;48.892;9.544;2023-06-24T10:34:28;30.80;45.40
1468;DHT22;727;48.892;9.544;2023-06-24T10:37:09;31.00;44.80
1468;DHT22;727;48.892;9.544;2023-06-24T10:39:42;31.40;44.00
1468;DHT22;727;48.892;9.544;2023-06-24T10:42:37;31.60;43.60
1468;DHT22;727;48.892;9.544;2023-06-24T10:45:28;31.80;42.20
1468;DHT22;727;48.892;9.544;2023-06-24T10:47:55;32.00;42.00
1468;DHT22;727;48.892;9.544;2023-06-24T10:50:25;31.90;42.20
1468;DHT22;727;48.892;9.544;2023-06-24T10:52:53;31.90;43.00
1468;DHT22;727;48.892;9.544;2023-06-24T10:55:22;31.60;42.80
1468;DHT22;727;48.892;9.544;2023-06-24T10:57:50;31.90;42.80
1468;DHT22;727;48.892;9.544;2023-06-24T11:00:20;32.10;43.10
1468;DHT22;727;48.892;9.544;2023-06-24T11:02:49;32.10;43.40
1468;DHT22;727;48.892;9.544;2023-06-24T11:05:15;32.20;42.60
1468;DHT22;727;48.892;9.544;2023-06-24T11:07:42;32.10;43.90
1468;DHT22;727;48.892;9.544;2023-06-24T11:10:11;32.40;43.30
1468;DHT22;727;48.892;9.544;2023-06-24T11:12:43;32.40;43.10
1468;DHT22;727;48.892;9.544;2023-06-24T11:15:13;32.50;42.30
1468;DHT22;727;48.892;9.544;2023-06-24T11:17:53;32.30;42.30
1468;DHT22;727;48.892;9.544;2023-06-24T11:20:21;31.80;42.30
1468;DHT22;727;48.892;9.544;2023-06-24T11:22:51;31.50;43.10
1468;DHT22;727;48.892;9.544;2023-06-24T11:25:21;31.10;44.10
1468;DHT22;727;48.892;9.544;2023-06-24T11:27:53;31.50;43.50
1468;DHT22;727;48.892;9.544;2023-06-24T11:30:34;31.80;43.80
1468;DHT22;727;48.892;9.544;2023-06-24T11:33:05;32.10;42.50
1468;DHT22;727;48.892;9.544;2023-06-24T11:44:14;32.80;40.10
1468;DHT22;727;48.892;9.544;2023-06-24T11:47:04;33.10;39.80
1468;DHT22;727;48.892;9.544;2023-06-24T11:49:47;32.90;39.70
1468;DHT22;727;48.892;9.544;2023-06-24T11:52:16;33.00;39.50
1468;DHT22;727;48.892;9.544;2023-06-24T11:54:43;32.60;40.20
1468;DHT22;727;48.892;9.544;2023-06-24T11:57:19;32.50;40.60
1468;DHT22;727;48.892;9.544;2023-06-24T11:59:57;32.30;41.10
1468;DHT22;727;48.892;9.544;2023-06-24T12:07:45;33.00;40.40
1468;DHT22;727;48.892;9.544;2023-06-24T12:10:15;33.00;39.20
1468;DHT22;727;48.892;9.544;2023-06-24T12:12:56;33.00;38.70
1468;DHT22;727;48.892;9.544;2023-06-24T12:15:24;32.60;39.50
1468;DHT22;727;48.892;9.544;2023-06-24T12:17:51;32.30;39.40
1468;DHT22;727;48.892;9.544;2023-06-24T12:20:18;32.40;39.60
1468;DHT22;727;48.892;9.544;2023-06-24T12:25:31;32.60;39.60
1468;DHT22;727;48.892;9.544;2023-06-24T12:28:00;31.70;40.00
1468;DHT22;727;48.892;9.544;2023-06-24T12:30:47;31.20;40.40
1468;DHT22;727;48.892;9.544;2023-06-24T12:33:17;31.40;41.40
1468;DHT22;727;48.892;9.544;2023-06-24T12:35:44;31.40;40.40
1468;DHT22;727;48.892;9.544;2023-06-24T12:43:56;32.30;40.00
1468;DHT22;727;48.892;9.544;2023-06-24T12:46:26;32.30;39.10
1468;DHT22;727;48.892;9.544;2023-06-24T12:59:16;32.70;38.60
1468;DHT22;727;48.892;9.544;2023-06-24T13:01:46;32.60;38.10
1468;DHT22;727;48.892;9.544;2023-06-24T13:04:15;32.60;38.10
1468;DHT22;727;48.892;9.544;2023-06-24T13:09:19;32.50;40.80
1468;DHT22;727;48.892;9.544;2023-06-24T14:51:19;31.40;38.10
1468;DHT22;727;48.892;9.544;2023-06-24T14:53:47;31.10;39.00
1468;DHT22;727;48.892;9.544;2023-06-24T14:56:59;31.10;39.10
1468;DHT22;727;48.892;9.544;2023-06-24T14:59:57;31.00;39.20
1468;DHT22;727;48.892;9.544;2023-06-24T15:07:46;31.20;38.80
1468;DHT22;727;48.892;9.544;2023-06-24T15:10:14;31.00;39.20
1468;DHT22;727;48.892;9.544;2023-06-24T15:12:50;31.00;39.00
1468;DHT22;727;48.892;9.544;2023-06-24T15:15:19;30.90;39.10
1468;DHT22;727;48.892;9.544;2023-06-24T15:24:14;31.10;39.30
1468;DHT22;727;48.892;9.544;2023-06-24T15:27:25;31.00;39.30
1468;DHT22;727;48.892;9.544;2023-06-24T15:33:10;29.80;42.50
1468;DHT22;727;48.892;9.544;2023-06-24T15:36:10;29.90;41.60
1468;DHT22;727;48.892;9.544;2023-06-24T15:38:53;29.90;41.40
1468;DHT22;727;48.892;9.544;2023-06-24T15:44:27;30.00;41.00
1468;DHT22;727;48.892;9.544;2023-06-24T15:46:56;29.70;41.30
1468;DHT22;727;48.892;9.544;2023-06-24T15:49:23;30.00;41.60
1468;DHT22;727;48.892;9.544;2023-06-24T15:52:33;30.00;41.50
1468;DHT22;727;48.892;9.544;2023-06-24T15:58:23;30.30;41.90
1468;DHT22;727;48.892;9.544;2023-06-24T16:00:49;30.20;41.40
1468;DHT22;727;48.892;9.544;2023-06-24T16:03:17;30.00;41.20
1468;DHT22;727;48.892;9.544;2023-06-24T16:05:49;29.80;41.90
1468;DHT22;727;48.892;9.544;2023-06-24T16:08:31;29.80;41.80
1468;DHT22;727;48.892;9.544;2023-06-24T16:11:20;29.50;42.10
1468;DHT22;727;48.892;9.544;2023-06-24T16:13:52;29.50;42.10
1468;DHT22;727;48.892;9.544;2023-06-24T16:16:34;29.70;41.60
1468;DHT22;727;48.892;9.544;2023-06-24T16:29:41;29.60;42.00
1468;DHT22;727;48.892;9.544;2023-06-24T16:32:08;29.40;41.50
1468;DHT22;727;48.892;9.544;2023-06-24T16:34:34;29.30;41.70
1468;DHT22;727;48.892;9.544;2023-06-24T16:37:01;29.20;41.70
1468;DHT22;727;48.892;9.544;2023-06-24T16:39:29;29.10;42.00
1468;DHT22;727;48.892;9.544;2023-06-24T16:42:12;28.90;41.90
1468;DHT22;727;48.892;9.544;2023-06-24T16:45:01;28.90;42.20
1468;DHT22;727;48.892;9.544;2023-06-24T16:47:30;28.90;42.50
1468;DHT22;727;48.892;9.544;2023-06-24T16:50:13;28.80;43.60
1468;DHT22;727;48.892;9.544;2023-06-24T16:52:50;28.80;43.50
1468;DHT22;727;48.892;9.544;2023-06-24T16:55:22;28.80;43.10
1468;DHT22;727;48.892;9.544;2023-06-24T16:58:03;28.70;43.50
1468;DHT22;727;48.892;9.544;2023-06-24T17:00:37;28.50;44.30
1468;DHT22;727;48.892;9.544;2023-06-24T17:03:20;28.30;44.40
1468;DHT22;727;48.892;9.544;2023-06-24T17:05:48;27.90;45.70
1468;DHT22;727;48.892;9.544;2023-06-24T17:08:30;27.70;45.70
1468;DHT22;727;48.892;9.544;2023-06-24T17:10:59;27.60;46.20
1468;DHT22;727;48.892;9.544;2023-06-24T17:13:30;27.50;47.20
1468;DHT22;727;48.892;9.544;2023-06-24T17:16:02;27.40;47.00
1468;DHT22;727;48.892;9.544;2023-06-24T17:18:33;27.30;47.00
1468;DHT22;727;48.892;9.544;2023-06-24T17:21:04;27.10;47.80
1468;DHT22;727;48.892;9.544;2023-06-24T17:23:35;27.10;47.50
1468;DHT22;727;48.892;9.544;2023-06-24T17:26:17;27.10;46.50
1468;DHT22;727;48.892;9.544;2023-06-24T17:32:09;27.10;46.00
1468;DHT22;727;48.892;9.544;2023-06-24T17:38:17;27.00;47.30
1468;DHT22;727;48.892;9.544;2023-06-24T17:41:03;26.70;48.90
1468;DHT22;727;48.892;9.544;2023-06-24T17:43:53;26.60;48.30
1468;DHT22;727;48.892;9.544;2023-06-24T17:46:35;26.40;49.60
1468;DHT22;727;48.892;9.544;2023-06-24T17:49:22;26.20;49.80
1468;DHT22;727;48.892;9.544;2023-06-24T17:55:07;25.90;50.80
1468;DHT22;727;48.892;9.544;2023-06-24T17:57:49;25.70;51.70
1468;DHT22;727;48.892;9.544;2023-06-24T18:00:21;25.60;51.00
1468;DHT22;727;48.892;9.544;2023-06-24T18:03:04;25.50;52.30
1468;DHT22;727;48.892;9.544;2023-06-24T18:05:37;25.40;52.10
1468;DHT22;727;48.892;9.544;2023-06-24T18:08:09;25.20;52.50
1468;DHT22;727;48.892;9.544;2023-06-24T18:10:37;25.10;53.60
1468;DHT22;727;48.892;9.544;2023-06-24T18:13:09;24.90;54.20
1468;DHT22;727;48.892;9.544;2023-06-24T18:18:49;24.70;54.60
1468;DHT22;727;48.892;9.544;2023-06-24T18:21:19;24.50;55.00
1468;DHT22;727;48.892;9.544;2023-06-24T18:23:52;24.40;55.70
1468;DHT22;727;48.892;9.544;2023-06-24T18:26:22;24.30;55.60
1468;DHT22;727;48.892;9.544;2023-06-24T18:29:12;24.20;56.10
1468;DHT22;727;48.892;9.544;2023-06-24T18:31:42;24.10;56.00
1468;DHT22;727;48.892;9.544;2023-06-24T18:34:16;24.00;56.90
1468;DHT22;727;48.892;9.544;2023-06-24T18:36:55;23.80;58.00
1468;DHT22;727;48.892;9.544;2023-06-24T18:42:22;23.60;58.20
1468;DHT22;727;48.892;9.544;2023-06-24T18:44:49;23.50;58.60
1468;DHT22;727;48.892;9.544;2023-06-24T18:47:16;23.30;58.70
1468;DHT22;727;48.892;9.544;2023-06-24T18:49:43;23.30;59.00
1468;DHT22;727;48.892;9.544;2023-06-24T18:52:11;23.10;59.20
1468;DHT22;727;48.892;9.544;2023-06-24T18:54:38;23.10;59.40
1468;DHT22;727;48.892;9.544;2023-06-24T18:57:06;23.00;59.90
1468;DHT22;727;48.892;9.544;2023-06-24T18:59:39;22.90;59.80
1468;DHT22;727;48.892;9.544;2023-06-24T19:02:06;22.80;60.40
1468;DHT22;727;48.892;9.544;2023-06-24T19:04:33;22.70;60.40
1468;DHT22;727;48.892;9.544;2023-06-24T19:07:01;22.70;60.80
1468;DHT22;727;48.892;9.544;2023-06-24T19:09:30;22.60;61.40
1468;DHT22;727;48.892;9.544;2023-06-24T19:12:05;22.40;62.20
1468;DHT22;727;48.892;9.544;2023-06-24T19:14:38;22.30;62.80
1468;DHT22;727;48.892;9.544;2023-06-24T19:20:28;22.10;62.80
1468;DHT22;727;48.892;9.544;2023-06-24T19:23:08;22.00;63.10
1468;DHT22;727;48.892;9.544;2023-06-24T19:25:37;21.90;63.80
1468;DHT22;727;48.892;9.544;2023-06-24T19:28:04;21.90;64.10
1468;DHT22;727;48.892;9.544;2023-06-24T19:30:31;21.70;65.00
1468;DHT22;727;48.892;9.544;2023-06-24T19:35:44;21.50;66.80
1468;DHT22;727;48.892;9.544;2023-06-24T19:38:11;21.40;67.70
1468;DHT22;727;48.892;9.544;2023-06-24T19:40:40;21.30;68.10
1468;DHT22;727;48.892;9.544;2023-06-24T19:43:07;21.10;68.50
1468;DHT22;727;48.892;9.544;2023-06-24T19:45:34;21.10;69.10
1468;DHT22;727;48.892;9.544;2023-06-24T19:48:01;20.90;69.70
1468;DHT22;727;48.892;9.544;2023-06-24T19:50:31;20.80;70.10
1468;DHT22;727;48.892;9.544;2023-06-24T19:53:03;20.70;70.40
1468;DHT22;727;48.892;9.544;2023-06-24T19:55:55;20.60;70.60
1468;DHT22;727;48.892;9.544;2023-06-24T19:58:40;20.50;70.90
1468;DHT22;727;48.892;9.544;2023-06-24T20:01:12;20.30;71.10
1468;DHT22;727;48.892;9.544;2023-06-24T20:03:39;20.30;71.60